Time;durP1;ratioP1;P1;durP2;ratioP2;P2;SDS_P1;SDS_P2;PMS_P1;PMS_P2;Temp;Humidity;BMP_temperature;BMP_pressure;BME280_temperature;BME280_humidity;BME280_pressure;Samples;Min_cycle;Max_cycle;Signal;HPM_P1;HPM_P2
2023/12/11 00:01:10;;;;;;;0.97;0.93;;;11.90;99.90;;;;;;969803;147;27325;-80
2023/12/11 00:03:37;;;;;;;1.10;1.00;;;11.80;99.90;;;;;;969441;146;27267;-80
2023/12/11 00:06:04;;;;;;;1.63;0.80;;;11.70;99.90;;;;;;970022;147;27415;-80
2023/12/11 00:08:30;;;;;;;1.10;0.93;;;11.70;99.90;;;;;;969551;148;27981;-80
2023/12/11 00:10:57;;;;;;;1.90;0.93;;;11.60;99.90;;;;;;969817;148;27232;-80
2023/12/11 00:13:23;;;;;;;2.07;1.00;;;11.60;99.90;;;;;;969935;147;27275;-80
2023/12/11 00:15:50;;;;;;;1.00;0.90;;;11.50;99.90;;;;;;970021;146;27282;-80
2023/12/11 00:18:17;;;;;;;1.00;0.80;;;11.50;99.90;;;;;;970221;146;27310;-80
2023/12/11 00:20:43;;;;;;;1.70;0.77;;;11.50;99.90;;;;;;969423;148;28862;-80
2023/12/11 00:23:10;;;;;;;1.37;0.88;;;11.50;99.90;;;;;;970059;148;27255;-80
2023/12/11 00:25:37;;;;;;;1.47;0.77;;;11.50;99.90;;;;;;969719;145;27356;-80
2023/12/11 00:28:03;;;;;;;0.43;0.43;;;11.40;99.90;;;;;;969282;146;27614;-80
2023/12/11 00:30:30;;;;;;;1.40;0.80;;;11.40;99.90;;;;;;969817;144;27415;-80
2023/12/11 00:32:56;;;;;;;0.80;0.80;;;11.40;99.90;;;;;;969798;148;27255;-80
2023/12/11 00:35:23;;;;;;;1.20;0.80;;;11.40;99.90;;;;;;969915;147;27275;-80
2023/12/11 00:37:49;;;;;;;0.70;0.70;;;11.50;99.90;;;;;;969128;146;27817;-80
2023/12/11 00:40:16;;;;;;;1.92;0.90;;;11.40;99.90;;;;;;969966;148;27403;-80
2023/12/11 00:42:42;;;;;;;1.00;0.90;;;11.50;99.90;;;;;;969843;147;27336;-80
2023/12/11 00:45:09;;;;;;;0.80;0.70;;;11.50;99.90;;;;;;969991;148;27580;-80
2023/12/11 00:47:36;;;;;;;1.37;0.87;;;11.50;99.90;;;;;;969808;147;27281;-80
2023/12/11 00:50:02;;;;;;;1.20;0.80;;;11.50;99.90;;;;;;970068;148;27271;-80
2023/12/11 00:52:29;;;;;;;3.83;0.80;;;11.60;99.90;;;;;;970089;147;27337;-78
2023/12/11 00:54:56;;;;;;;1.15;0.90;;;11.60;99.90;;;;;;969598;148;27814;-79
2023/12/11 00:57:22;;;;;;;1.02;0.93;;;11.70;99.90;;;;;;969422;146;27246;-78
2023/12/11 00:59:49;;;;;;;0.80;0.78;;;11.70;99.90;;;;;;969624;146;27411;-78
2023/12/11 01:02:16;;;;;;;1.13;0.97;;;11.80;99.90;;;;;;969904;148;27386;-80
2023/12/11 01:04:42;;;;;;;0.98;0.70;;;11.80;99.90;;;;;;969471;148;27414;-78
2023/12/11 01:07:09;;;;;;;2.27;0.80;;;11.90;99.90;;;;;;969830;148;27290;-78
2023/12/11 01:09:35;;;;;;;0.90;0.70;;;11.90;99.90;;;;;;969361;147;27274;-78
2023/12/11 01:12:02;;;;;;;1.50;1.00;;;12.00;99.90;;;;;;969193;147;27890;-79
2023/12/11 01:14:28;;;;;;;1.75;0.90;;;12.00;99.90;;;;;;969870;148;27334;-80
2023/12/11 01:16:55;;;;;;;1.17;1.00;;;12.00;99.90;;;;;;968409;146;27302;-80
2023/12/11 01:19:21;;;;;;;0.83;0.83;;;12.00;99.90;;;;;;969919;147;27350;-80
2023/12/11 01:21:48;;;;;;;1.13;0.70;;;12.10;99.90;;;;;;969927;146;27253;-80
2023/12/11 01:24:14;;;;;;;1.22;0.70;;;12.10;99.90;;;;;;970076;148;27329;-80
2023/12/11 01:26:41;;;;;;;1.00;0.90;;;12.00;99.90;;;;;;969943;147;27334;-80
2023/12/11 01:29:08;;;;;;;1.20;0.70;;;12.00;99.90;;;;;;970099;148;27276;-80
2023/12/11 01:31:34;;;;;;;1.75;1.02;;;12.00;99.90;;;;;;969765;147;27318;-81
2023/12/11 01:34:01;;;;;;;0.80;0.80;;;12.00;99.90;;;;;;969598;144;27423;-80
2023/12/11 01:36:27;;;;;;;0.77;0.77;;;12.00;99.90;;;;;;969739;148;27337;-80
2023/12/11 01:38:54;;;;;;;0.93;0.70;;;11.90;99.90;;;;;;969505;147;27426;-80
2023/12/11 01:41:21;;;;;;;2.53;1.10;;;11.90;99.90;;;;;;968905;148;27375;-80
2023/12/11 01:43:53;;;;;;;1.17;1.02;;;11.90;99.90;;;;;;969857;148;27282;-80
2023/12/11 01:46:20;;;;;;;1.25;1.00;;;12.00;99.90;;;;;;969802;147;27315;-81
2023/12/11 01:48:46;;;;;;;0.80;0.80;;;12.00;99.90;;;;;;969819;147;27403;-80
2023/12/11 01:51:13;;;;;;;1.35;0.90;;;12.00;99.90;;;;;;969606;146;28301;-80
2023/12/11 01:53:39;;;;;;;2.13;0.80;;;12.00;99.90;;;;;;969455;148;27406;-80
2023/12/11 01:56:06;;;;;;;0.97;0.80;;;12.10;99.90;;;;;;968243;147;27814;-81
2023/12/11 01:58:33;;;;;;;1.07;1.00;;;12.10;99.90;;;;;;968362;147;27287;-81
2023/12/11 02:00:59;;;;;;;1.33;1.03;;;12.10;99.90;;;;;;969574;147;27384;-80
2023/12/11 02:03:26;;;;;;;1.27;1.00;;;12.20;99.90;;;;;;968959;147;27279;-81
2023/12/11 02:05:52;;;;;;;0.80;0.80;;;12.10;99.90;;;;;;970411;148;27402;-81
2023/12/11 02:08:19;;;;;;;0.83;0.83;;;12.20;99.90;;;;;;970228;147;27577;-81
2023/12/11 02:10:46;;;;;;;0.70;0.70;;;12.20;99.90;;;;;;970082;147;27320;-81
2023/12/11 02:13:12;;;;;;;1.97;1.00;;;12.20;99.90;;;;;;969642;148;27337;-80
2023/12/11 02:15:44;;;;;;;1.40;0.80;;;12.10;99.90;;;;;;970212;148;27350;-81
2023/12/11 02:18:11;;;;;;;1.32;1.00;;;12.10;99.90;;;;;;969554;148;27399;-81
2023/12/11 02:20:38;;;;;;;0.57;0.57;;;12.20;99.90;;;;;;970288;147;27306;-81
2023/12/11 02:23:04;;;;;;;2.00;0.90;;;12.20;99.90;;;;;;969700;146;28212;-81
2023/12/11 02:25:31;;;;;;;0.80;0.77;;;12.20;99.90;;;;;;967568;147;27334;-81
2023/12/11 02:28:01;;;;;;;2.07;1.10;;;12.10;99.90;;;;;;969308;147;27432;-80
2023/12/11 02:30:27;;;;;;;0.97;0.87;;;12.10;99.90;;;;;;969043;146;27379;-81
2023/12/11 02:32:54;;;;;;;0.95;0.95;;;12.10;99.90;;;;;;969984;144;27321;-81
2023/12/11 02:35:20;;;;;;;1.07;0.87;;;12.10;99.90;;;;;;970042;148;27227;-81
2023/12/11 02:37:47;;;;;;;1.97;1.17;;;12.00;99.90;;;;;;969239;145;27262;-80
2023/12/11 02:40:13;;;;;;;2.03;0.90;;;12.00;99.90;;;;;;969890;146;27336;-81
2023/12/11 02:42:40;;;;;;;2.80;1.27;;;12.00;99.90;;;;;;969157;147;27294;-80
2023/12/11 02:45:07;;;;;;;2.15;0.70;;;12.00;99.90;;;;;;969242;147;27302;-81
2023/12/11 02:47:33;;;;;;;1.90;1.10;;;12.00;99.90;;;;;;969429;146;27290;-81
2023/12/11 02:50:00;;;;;;;1.50;1.03;;;12.00;99.90;;;;;;969740;147;27263;-81
2023/12/11 02:52:26;;;;;;;1.07;0.97;;;12.00;99.90;;;;;;970070;147;27242;-81
2023/12/11 02:54:53;;;;;;;2.02;0.90;;;12.10;99.90;;;;;;969652;147;27326;-81
2023/12/11 02:57:20;;;;;;;1.00;0.93;;;12.10;99.90;;;;;;969250;147;28612;-81
2023/12/11 02:59:46;;;;;;;2.05;1.30;;;12.10;99.90;;;;;;969281;146;27359;-80
2023/12/11 03:02:13;;;;;;;1.12;0.82;;;12.20;99.90;;;;;;969563;147;27398;-81
2023/12/11 03:04:39;;;;;;;2.00;0.90;;;12.20;99.90;;;;;;970016;147;27387;-81
2023/12/11 03:07:06;;;;;;;1.35;1.00;;;12.20;99.90;;;;;;969841;146;27337;-80
2023/12/11 03:09:33;;;;;;;1.50;1.10;;;12.20;99.90;;;;;;969971;145;27227;-81
2023/12/11 03:11:59;;;;;;;5.57;1.23;;;12.20;99.90;;;;;;970195;147;27325;-81
2023/12/11 03:14:26;;;;;;;0.90;0.90;;;12.20;99.90;;;;;;970163;148;27256;-83
2023/12/11 03:16:52;;;;;;;1.00;0.90;;;12.10;99.90;;;;;;969681;146;27423;-84
2023/12/11 03:19:19;;;;;;;1.33;1.00;;;12.10;99.90;;;;;;969559;146;27826;-82
2023/12/11 03:21:46;;;;;;;0.87;0.80;;;12.00;99.90;;;;;;969803;147;27279;-84
2023/12/11 03:24:12;;;;;;;1.33;0.90;;;12.00;99.90;;;;;;969620;146;27311;-83
2023/12/11 03:26:39;;;;;;;1.90;0.80;;;12.00;99.90;;;;;;969857;147;28197;-82
2023/12/11 03:29:05;;;;;;;1.33;1.00;;;11.90;99.90;;;;;;969548;147;27419;-84
2023/12/11 03:31:32;;;;;;;1.47;1.10;;;11.90;99.90;;;;;;970432;147;27274;-85
2023/12/11 03:33:58;;;;;;;1.43;1.00;;;11.80;99.90;;;;;;969238;147;27219;-84
2023/12/11 03:36:25;;;;;;;2.70;0.93;;;11.80;99.90;;;;;;969565;147;27779;-83
2023/12/11 03:38:52;;;;;;;3.47;1.10;;;11.80;99.90;;;;;;969756;148;27314;-83
2023/12/11 03:41:18;;;;;;;2.80;1.00;;;11.70;99.90;;;;;;969660;147;28629;-85
2023/12/11 03:43:45;;;;;;;2.67;1.30;;;11.70;99.90;;;;;;969582;147;27396;-84
2023/12/11 03:46:11;;;;;;;2.17;1.10;;;11.70;99.90;;;;;;970345;147;27351;-84
2023/12/11 03:48:38;;;;;;;1.97;0.80;;;11.80;99.90;;;;;;970227;147;27259;-82
2023/12/11 03:51:05;;;;;;;2.73;1.17;;;11.80;99.90;;;;;;970248;148;27411;-85
2023/12/11 03:53:31;;;;;;;2.42;1.10;;;11.80;99.90;;;;;;969405;147;27267;-83
2023/12/11 03:55:58;;;;;;;3.07;1.13;;;11.90;99.90;;;;;;969004;146;27275;-85
2023/12/11 03:58:24;;;;;;;1.07;1.00;;;11.90;99.90;;;;;;969790;147;27345;-83
2023/12/11 04:00:51;;;;;;;1.55;1.02;;;12.00;99.90;;;;;;970512;148;27302;-84
2023/12/11 04:03:18;;;;;;;1.77;1.07;;;12.00;99.90;;;;;;969705;147;27823;-85
2023/12/11 04:05:44;;;;;;;0.87;0.83;;;12.10;99.90;;;;;;970069;146;27294;-85
2023/12/11 04:08:11;;;;;;;2.27;1.10;;;12.10;99.90;;;;;;969796;145;27334;-84
2023/12/11 04:10:38;;;;;;;2.27;1.17;;;12.10;99.90;;;;;;969502;147;27387;-84
2023/12/11 04:13:04;;;;;;;4.25;1.10;;;12.20;99.90;;;;;;970069;147;27306;-84
2023/12/11 04:15:30;;;;;;;1.20;0.97;;;12.20;99.90;;;;;;969308;147;27319;-85
2023/12/11 04:17:57;;;;;;;3.87;1.20;;;12.20;99.90;;;;;;969020;147;27259;-84
2023/12/11 04:20:24;;;;;;;2.92;1.15;;;12.30;99.90;;;;;;970345;147;27270;-83
2023/12/11 04:22:50;;;;;;;3.20;1.23;;;12.30;99.90;;;;;;970401;146;27309;-85
2023/12/11 04:25:17;;;;;;;2.33;1.07;;;12.30;99.90;;;;;;969972;147;28671;-80
2023/12/11 04:27:43;;;;;;;1.77;1.10;;;12.40;99.90;;;;;;969329;147;27355;-80
2023/12/11 04:30:10;;;;;;;1.35;1.00;;;12.40;99.90;;;;;;969702;147;27274;-80
2023/12/11 04:32:37;;;;;;;2.22;1.40;;;12.40;99.90;;;;;;970010;147;27380;-81
2023/12/11 04:35:03;;;;;;;4.10;1.30;;;12.50;99.90;;;;;;970106;147;27326;-80
2023/12/11 04:37:30;;;;;;;2.20;1.20;;;12.50;99.90;;;;;;969426;147;27263;-80
2023/12/11 04:39:56;;;;;;;1.95;1.10;;;12.50;99.90;;;;;;969736;148;27310;-80
2023/12/11 04:42:23;;;;;;;2.77;1.22;;;12.60;99.90;;;;;;969831;147;27380;-81
2023/12/11 04:44:50;;;;;;;3.35;1.40;;;12.60;99.90;;;;;;970504;148;27309;-81
2023/12/11 04:47:16;;;;;;;3.25;1.32;;;12.60;99.90;;;;;;969423;147;27322;-81
2023/12/11 04:49:43;;;;;;;2.00;1.02;;;12.70;99.90;;;;;;969399;148;27294;-81
2023/12/11 04:52:09;;;;;;;4.10;1.42;;;12.70;99.90;;;;;;970312;148;27247;-81
2023/12/11 04:54:36;;;;;;;2.33;1.40;;;12.80;99.90;;;;;;970356;147;27838;-81
2023/12/11 04:57:03;;;;;;;3.33;1.40;;;12.80;99.90;;;;;;970265;146;27314;-81
2023/12/11 04:59:29;;;;;;;2.52;1.47;;;12.80;99.90;;;;;;969922;147;27277;-81
2023/12/11 05:01:56;;;;;;;2.98;1.50;;;12.90;99.90;;;;;;969728;148;27691;-81
2023/12/11 05:04:22;;;;;;;5.72;1.50;;;12.90;99.90;;;;;;969243;147;27294;-81
2023/12/11 05:06:49;;;;;;;2.90;1.12;;;12.90;99.90;;;;;;969629;147;27366;-81
2023/12/11 05:09:15;;;;;;;3.00;1.65;;;13.00;99.90;;;;;;969947;145;27385;-80
2023/12/11 05:11:42;;;;;;;3.22;1.45;;;13.00;99.90;;;;;;970311;147;27329;-80
2023/12/11 05:14:09;;;;;;;6.40;1.60;;;13.00;99.90;;;;;;969680;147;27259;-81
2023/12/11 05:16:35;;;;;;;2.20;1.27;;;13.00;99.90;;;;;;969598;147;27358;-81
2023/12/11 05:19:02;;;;;;;4.53;1.50;;;13.10;99.90;;;;;;969903;148;27314;-81
2023/12/11 05:21:28;;;;;;;2.55;1.20;;;13.10;99.90;;;;;;969976;147;27817;-81
2023/12/11 05:23:55;;;;;;;4.70;1.35;;;13.10;99.90;;;;;;969709;148;27291;-81
2023/12/11 05:26:22;;;;;;;4.55;1.20;;;13.20;99.90;;;;;;968536;148;27220;-81
2023/12/11 05:28:48;;;;;;;2.95;1.40;;;13.20;99.90;;;;;;967707;145;27303;-81
2023/12/11 05:31:15;;;;;;;3.85;1.45;;;13.20;99.90;;;;;;967050;147;27322;-81
2023/12/11 05:33:41;;;;;;;3.67;1.22;;;13.20;99.90;;;;;;967251;148;27288;-81
2023/12/11 05:36:08;;;;;;;2.02;0.90;;;13.20;99.90;;;;;;966338;148;27248;-81
2023/12/11 05:38:34;;;;;;;4.05;1.25;;;13.20;99.90;;;;;;966639;147;27388;-81
2023/12/11 05:41:01;;;;;;;4.42;1.60;;;13.20;99.90;;;;;;967272;148;27399;-81
2023/12/11 05:43:28;;;;;;;5.28;1.65;;;13.20;99.90;;;;;;966754;148;27411;-81
2023/12/11 05:45:54;;;;;;;4.00;1.42;;;13.20;99.90;;;;;;966498;147;27248;-81
2023/12/11 05:48:21;;;;;;;3.27;1.65;;;13.10;99.90;;;;;;967167;147;27376;-80
2023/12/11 05:50:47;;;;;;;2.65;1.45;;;13.10;99.90;;;;;;966696;147;27290;-81
2023/12/11 05:53:14;;;;;;;2.90;1.15;;;13.10;99.90;;;;;;967378;147;27319;-81
2023/12/11 05:55:41;;;;;;;2.62;1.60;;;13.10;99.90;;;;;;966555;147;27302;-80
2023/12/11 05:58:07;;;;;;;4.47;1.52;;;13.10;99.90;;;;;;966539;146;27298;-80
2023/12/11 06:00:34;;;;;;;3.27;1.37;;;13.10;99.90;;;;;;965713;146;27321;-80
2023/12/11 06:03:00;;;;;;;4.70;1.30;;;13.00;99.90;;;;;;966718;147;27411;-80
2023/12/11 06:05:27;;;;;;;3.67;1.60;;;13.10;99.90;;;;;;941821;151;27352;-81
2023/12/11 06:07:54;;;;;;;2.77;1.30;;;13.10;99.90;;;;;;966627;148;27357;-81
2023/12/11 06:10:20;;;;;;;4.45;1.65;;;13.10;99.90;;;;;;966709;148;27228;-81
2023/12/11 06:12:47;;;;;;;3.80;1.20;;;13.10;99.90;;;;;;966350;148;27255;-81
2023/12/11 06:15:13;;;;;;;2.65;1.05;;;13.10;99.90;;;;;;967171;148;27326;-81
2023/12/11 06:17:40;;;;;;;2.60;1.57;;;13.10;99.90;;;;;;966833;146;27270;-81
2023/12/11 06:20:07;;;;;;;4.22;1.42;;;13.10;99.90;;;;;;967241;146;27850;-81
2023/12/11 06:22:33;;;;;;;1.57;1.10;;;13.10;99.90;;;;;;965915;148;27387;-83
2023/12/11 06:25:00;;;;;;;2.80;1.12;;;13.10;99.90;;;;;;966417;146;27362;-81
2023/12/11 06:27:27;;;;;;;4.37;1.60;;;13.10;99.90;;;;;;966869;148;28020;-81
2023/12/11 06:29:53;;;;;;;3.50;1.40;;;13.10;99.90;;;;;;966707;148;27295;-81
2023/12/11 06:32:20;;;;;;;2.33;1.10;;;13.10;99.90;;;;;;966158;145;27302;-81
2023/12/11 06:34:46;;;;;;;4.00;1.20;;;13.10;99.90;;;;;;966201;147;27252;-81
2023/12/11 06:37:13;;;;;;;2.98;1.70;;;13.10;99.90;;;;;;966234;146;27322;-81
2023/12/11 06:39:39;;;;;;;2.77;1.43;;;13.10;99.90;;;;;;966629;147;27338;-81
2023/12/11 06:42:06;;;;;;;4.90;1.30;;;13.10;99.90;;;;;;966885;148;27283;-81
2023/12/11 06:44:32;;;;;;;3.57;1.60;;;13.10;99.90;;;;;;966224;146;27284;-81
2023/12/11 06:46:59;;;;;;;2.95;1.52;;;13.10;99.90;;;;;;966885;147;27415;-82
2023/12/11 06:49:26;;;;;;;2.00;1.00;;;13.10;99.90;;;;;;966696;146;27422;-86
2023/12/11 06:51:55;;;;;;;1.55;0.93;;;13.10;99.90;;;;;;966785;147;27355;-86
2023/12/11 06:54:19;;;;;;;2.83;1.40;;;13.10;99.90;;;;;;966255;146;27324;-86
2023/12/11 06:56:45;;;;;;;2.25;1.40;;;13.10;99.90;;;;;;966742;146;27579;-84
2023/12/11 06:59:12;;;;;;;1.95;1.30;;;13.20;99.90;;;;;;967082;148;27399;-84
2023/12/11 07:01:39;;;;;;;2.33;1.02;;;13.20;99.90;;;;;;965893;148;27369;-85
2023/12/11 07:04:05;;;;;;;2.72;1.00;;;13.20;99.90;;;;;;966224;146;27336;-86
2023/12/11 07:06:32;;;;;;;1.72;1.10;;;13.20;99.90;;;;;;966734;147;27291;-81
2023/12/11 07:08:58;;;;;;;3.52;1.42;;;13.30;99.90;;;;;;967670;148;27243;-81
2023/12/11 07:11:25;;;;;;;2.08;1.35;;;13.30;99.90;;;;;;966479;147;27314;-81
2023/12/11 07:13:52;;;;;;;4.08;1.60;;;13.30;99.90;;;;;;967000;148;27368;-81
2023/12/11 07:16:18;;;;;;;1.92;1.40;;;13.30;99.90;;;;;;966779;148;27263;-81
2023/12/11 07:18:45;;;;;;;1.05;0.95;;;13.30;99.90;;;;;;967127;147;27355;-81
2023/12/11 07:21:11;;;;;;;1.42;1.00;;;13.30;99.90;;;;;;966634;147;27407;-82
2023/12/11 07:23:38;;;;;;;1.00;0.90;;;13.30;99.90;;;;;;966873;146;27333;-82
2023/12/11 07:26:09;;;;;;;2.97;1.03;;;13.30;99.90;;;;;;967166;145;27299;-82
2023/12/11 07:28:31;;;;;;;2.42;1.10;;;13.30;99.90;;;;;;966535;146;27281;-82
2023/12/11 07:30:58;;;;;;;1.15;1.05;;;13.30;99.90;;;;;;970495;145;27362;-82
2023/12/11 07:33:24;;;;;;;1.77;1.00;;;13.30;99.90;;;;;;970033;147;27349;-82
2023/12/11 07:35:51;;;;;;;1.50;1.40;;;13.20;99.90;;;;;;968574;147;27339;-82
2023/12/11 07:38:17;;;;;;;1.40;1.20;;;13.20;99.90;;;;;;970038;147;27585;-81
2023/12/11 07:40:44;;;;;;;2.40;1.30;;;13.20;99.90;;;;;;969936;147;27356;-81
2023/12/11 07:43:11;;;;;;;2.50;1.10;;;13.10;99.90;;;;;;970057;147;27334;-81
2023/12/11 07:45:37;;;;;;;3.98;1.37;;;13.10;99.90;;;;;;969633;146;27314;-82
2023/12/11 07:48:04;;;;;;;2.25;1.22;;;13.00;99.90;;;;;;970039;148;27328;-82
2023/12/11 07:50:30;;;;;;;2.27;1.00;;;13.00;99.90;;;;;;970236;146;27375;-82
2023/12/11 07:52:57;;;;;;;1.70;1.00;;;13.00;99.90;;;;;;969882;147;27304;-82
2023/12/11 07:55:23;;;;;;;2.72;1.25;;;13.00;99.90;;;;;;970495;146;27423;-82
2023/12/11 07:57:50;;;;;;;2.25;1.07;;;13.00;99.90;;;;;;970361;148;27251;-80
2023/12/11 08:00:17;;;;;;;2.53;1.20;;;13.10;99.90;;;;;;969870;147;27286;-79
2023/12/11 08:02:43;;;;;;;1.40;1.02;;;13.10;99.90;;;;;;970011;146;27356;-80
2023/12/11 08:05:10;;;;;;;3.75;1.30;;;13.10;99.90;;;;;;970132;147;27324;-80
2023/12/11 08:07:39;;;;;;;3.42;1.10;;;13.20;99.90;;;;;;969581;147;27314;-80
2023/12/11 08:10:06;;;;;;;2.83;1.23;;;13.20;99.90;;;;;;969740;145;27710;-80
2023/12/11 08:12:32;;;;;;;2.92;1.72;;;13.20;99.90;;;;;;970176;146;27343;-80
2023/12/11 08:14:59;;;;;;;2.40;1.20;;;13.30;99.90;;;;;;969759;147;27330;-80
2023/12/11 08:17:26;;;;;;;1.67;1.20;;;13.30;99.90;;;;;;969778;147;27317;-82
2023/12/11 08:19:53;;;;;;;1.52;1.32;;;13.30;99.90;;;;;;969604;146;27379;-82
2023/12/11 08:22:19;;;;;;;2.55;1.30;;;13.40;99.90;;;;;;969560;145;27321;-81
2023/12/11 08:24:45;;;;;;;2.77;1.75;;;13.40;99.90;;;;;;969731;148;27310;-81
2023/12/11 08:27:12;;;;;;;3.85;1.95;;;13.40;99.90;;;;;;969031;145;27298;-82
2023/12/11 08:29:38;;;;;;;5.70;1.93;;;13.40;99.90;;;;;;969656;147;27301;-82
2023/12/11 08:32:05;;;;;;;3.27;1.25;;;13.40;99.90;;;;;;969930;147;27254;-82
2023/12/11 08:34:32;;;;;;;2.58;1.60;;;13.40;99.90;;;;;;970038;148;27375;-82
2023/12/11 08:36:58;;;;;;;3.75;1.55;;;13.40;99.90;;;;;;969869;148;27962;-82
2023/12/11 08:39:25;;;;;;;4.28;1.40;;;13.40;99.90;;;;;;969357;147;27321;-82
2023/12/11 08:41:51;;;;;;;4.23;1.87;;;13.50;99.90;;;;;;968864;145;27287;-82
2023/12/11 08:44:18;;;;;;;3.00;2.25;;;13.50;99.90;;;;;;970074;147;27263;-82
2023/12/11 08:46:45;;;;;;;2.62;1.67;;;13.50;99.90;;;;;;969592;148;27318;-82
2023/12/11 08:49:11;;;;;;;3.55;2.10;;;13.50;99.90;;;;;;968500;146;27752;-82
2023/12/11 08:51:38;;;;;;;4.15;2.37;;;13.60;99.90;;;;;;968555;146;27378;-81
2023/12/11 08:54:05;;;;;;;3.77;2.00;;;13.70;99.90;;;;;;969810;147;27263;-81
2023/12/11 08:56:31;;;;;;;5.62;2.60;;;13.80;99.90;;;;;;969671;146;27787;-81
2023/12/11 08:58:58;;;;;;;5.55;1.75;;;13.90;99.90;;;;;;968368;147;27430;-81
2023/12/11 09:01:24;;;;;;;2.72;1.60;;;14.10;99.90;;;;;;968964;148;27329;-81
2023/12/11 09:03:51;;;;;;;5.50;3.10;;;14.20;99.90;;;;;;968378;147;27268;-81
2023/12/11 09:06:17;;;;;;;3.37;2.10;;;14.30;99.90;;;;;;968175;146;27393;-79
2023/12/11 09:08:44;;;;;;;11.18;2.70;;;14.40;99.90;;;;;;968490;148;27215;-79
2023/12/11 09:11:10;;;;;;;4.60;2.12;;;14.50;99.90;;;;;;967361;147;27451;-79
2023/12/11 09:13:37;;;;;;;3.62;1.50;;;14.60;99.90;;;;;;967762;147;27415;-79
2023/12/11 09:16:04;;;;;;;6.78;1.82;;;14.70;99.90;;;;;;968501;147;27335;-78
2023/12/11 09:18:30;;;;;;;3.37;2.05;;;14.80;99.90;;;;;;968461;147;27344;-79
2023/12/11 09:20:57;;;;;;;5.30;1.72;;;14.90;99.70;;;;;;969477;147;27349;-80
2023/12/11 09:23:23;;;;;;;4.65;1.82;;;15.00;99.40;;;;;;966040;147;27453;-79
2023/12/11 09:25:50;;;;;;;4.00;1.95;;;15.10;98.70;;;;;;967833;147;27395;-80
2023/12/11 09:28:17;;;;;;;4.22;1.50;;;15.20;98.50;;;;;;968878;147;27341;-80
2023/12/11 09:30:43;;;;;;;5.17;1.67;;;15.30;98.20;;;;;;965851;147;27739;-80
2023/12/11 09:33:10;;;;;;;3.22;1.80;;;15.40;97.10;;;;;;965689;148;27268;-80
2023/12/11 09:35:37;;;;;;;4.20;1.60;;;15.50;96.40;;;;;;966276;146;27321;-80
2023/12/11 09:38:03;;;;;;;5.65;1.85;;;15.60;95.30;;;;;;965189;148;27244;-81
2023/12/11 09:40:30;;;;;;;4.28;1.70;;;15.60;93.70;;;;;;965388;148;27290;-80
2023/12/11 09:42:56;;;;;;;8.45;2.45;;;15.50;93.40;;;;;;965915;148;27373;-80
2023/12/11 09:45:23;;;;;;;5.10;1.85;;;15.50;92.70;;;;;;965435;146;27347;-80
2023/12/11 09:47:49;;;;;;;4.83;1.82;;;15.50;92.60;;;;;;965854;146;27301;-80
2023/12/11 09:50:16;;;;;;;4.17;2.10;;;15.40;92.60;;;;;;966026;147;27337;-80
2023/12/11 09:52:43;;;;;;;3.95;1.72;;;15.40;92.70;;;;;;966524;148;27255;-80
2023/12/11 09:55:09;;;;;;;6.37;2.85;;;15.40;92.50;;;;;;966280;146;27399;-80
2023/12/11 09:57:38;;;;;;;3.62;1.80;;;15.30;92.80;;;;;;965643;147;27857;-80
2023/12/11 10:00:06;;;;;;;7.67;2.47;;;15.30;92.80;;;;;;964399;148;27277;-80
2023/12/11 10:02:32;;;;;;;2.35;1.87;;;15.30;92.70;;;;;;965858;148;27386;-80
2023/12/11 10:05:04;;;;;;;4.85;1.85;;;15.30;92.60;;;;;;966095;146;27928;-80
2023/12/11 10:07:33;;;;;;;10.00;3.60;;;15.20;92.60;;;;;;964566;146;28426;-80
2023/12/11 10:10:00;;;;;;;3.98;1.90;;;15.20;92.50;;;;;;965558;147;27327;-81
2023/12/11 10:12:26;;;;;;;7.10;2.15;;;15.20;92.40;;;;;;962658;146;27380;-80
2023/12/11 10:15:02;;;;;;;3.67;1.65;;;15.20;92.60;;;;;;964148;148;27312;-81
2023/12/11 10:17:29;;;;;;;2.37;1.80;;;15.10;92.70;;;;;;965677;147;27308;-82
2023/12/11 10:19:55;;;;;;;5.45;1.67;;;15.20;92.90;;;;;;965066;148;27292;-82
2023/12/11 10:22:28;;;;;;;8.93;2.02;;;15.20;92.80;;;;;;965529;148;27308;-82
2023/12/11 10:24:54;;;;;;;5.83;1.95;;;15.20;92.70;;;;;;965217;145;27386;-82
2023/12/11 10:27:24;;;;;;;6.58;2.05;;;15.30;92.70;;;;;;966009;145;27335;-82
2023/12/11 10:30:11;;;;;;;7.10;2.42;;;15.30;92.50;;;;;;965469;147;27385;-82
2023/12/11 10:32:35;;;;;;;5.00;2.17;;;15.40;91.80;;;;;;963847;148;27288;-82
2023/12/11 10:35:02;;;;;;;4.65;1.80;;;15.40;92.00;;;;;;965211;148;27338;-82
2023/12/11 10:37:29;;;;;;;7.25;2.67;;;15.40;91.80;;;;;;966519;148;27412;-79
2023/12/11 10:39:55;;;;;;;6.25;2.22;;;15.40;91.30;;;;;;964835;147;27314;-79
2023/12/11 10:42:21;;;;;;;5.97;2.15;;;15.40;91.20;;;;;;966474;148;27244;-79
2023/12/11 10:44:48;;;;;;;6.75;2.58;;;15.50;90.70;;;;;;967369;148;27555;-79
2023/12/11 10:47:15;;;;;;;4.78;2.20;;;15.50;91.10;;;;;;967117;147;27239;-80
2023/12/11 10:49:41;;;;;;;4.90;1.75;;;15.50;91.20;;;;;;966940;146;27408;-80
2023/12/11 10:52:08;;;;;;;4.65;2.25;;;15.60;90.90;;;;;;966750;146;27259;-79
2023/12/11 10:54:43;;;;;;;6.78;2.80;;;15.60;91.00;;;;;;966705;148;27257;-79
2023/12/11 10:57:12;;;;;;;6.55;2.67;;;15.70;90.50;;;;;;967388;148;27292;-79
2023/12/11 10:59:39;;;;;;;3.72;1.95;;;15.70;90.20;;;;;;966312;148;27792;-79
2023/12/11 11:02:05;;;;;;;4.65;1.80;;;15.70;90.10;;;;;;966849;147;27360;-79
2023/12/11 11:04:32;;;;;;;3.77;2.20;;;15.70;89.80;;;;;;966375;148;27350;-79
2023/12/11 11:07:08;;;;;;;5.12;2.12;;;15.70;89.10;;;;;;965714;146;27822;-80
2023/12/11 11:09:34;;;;;;;7.17;2.58;;;15.70;88.20;;;;;;965728;146;27406;-79
2023/12/11 11:12:04;;;;;;;3.83;1.87;;;15.70;89.00;;;;;;966058;148;27324;-79
2023/12/11 11:14:46;;;;;;;5.90;2.30;;;15.70;88.20;;;;;;963083;145;27265;-80
2023/12/11 11:17:12;;;;;;;5.35;2.22;;;15.70;87.60;;;;;;966710;148;27252;-79
2023/12/11 11:19:38;;;;;;;7.85;2.15;;;15.60;87.50;;;;;;967357;148;27319;-79
2023/12/11 11:22:08;;;;;;;5.75;2.17;;;15.60;87.30;;;;;;961215;147;27314;-79
2023/12/11 11:24:34;;;;;;;4.87;2.20;;;15.50;87.50;;;;;;965414;145;27307;-79
2023/12/11 11:26:58;;;;;;;4.60;2.40;;;15.50;87.60;;;;;;966028;146;27720;-82
2023/12/11 11:29:40;;;;;;;5.62;1.80;;;15.50;88.00;;;;;;967629;145;27424;-81
2023/12/11 11:32:07;;;;;;;7.55;2.35;;;15.50;88.50;;;;;;966524;147;27449;-81
2023/12/11 11:34:42;;;;;;;6.33;1.80;;;15.50;88.90;;;;;;965612;148;27395;-81
2023/12/11 11:37:09;;;;;;;7.30;2.50;;;15.50;88.70;;;;;;965381;147;27350;-81
2023/12/11 11:40:00;;;;;;;5.45;1.95;;;15.60;88.70;;;;;;964814;147;27264;-81
2023/12/11 11:42:29;;;;;;;5.60;1.98;;;15.60;88.50;;;;;;966991;148;27291;-81
2023/12/11 11:44:58;;;;;;;5.60;2.15;;;15.60;89.20;;;;;;966366;147;27917;-81
2023/12/11 11:47:22;;;;;;;3.60;1.62;;;15.70;90.10;;;;;;964509;146;27716;-79
2023/12/11 11:49:49;;;;;;;6.45;2.37;;;15.70;89.10;;;;;;966239;146;27298;-79
2023/12/11 11:52:15;;;;;;;5.87;2.17;;;15.80;89.10;;;;;;965791;148;27329;-79
2023/12/11 11:54:42;;;;;;;6.20;2.35;;;15.80;89.70;;;;;;965973;148;27331;-79
2023/12/11 11:57:09;;;;;;;5.47;1.98;;;15.80;88.50;;;;;;966798;148;28159;-78
2023/12/11 11:59:44;;;;;;;4.97;2.05;;;15.90;88.10;;;;;;966707;146;27341;-80
2023/12/11 12:02:11;;;;;;;2.90;2.08;;;15.90;87.70;;;;;;967129;147;27373;-79
2023/12/11 12:04:37;;;;;;;6.05;1.90;;;15.90;87.30;;;;;;967255;146;27338;-79
2023/12/11 12:07:04;;;;;;;6.83;3.00;;;16.00;86.80;;;;;;948143;149;27714;-78
2023/12/11 12:09:31;;;;;;;5.53;1.92;;;16.00;86.40;;;;;;967098;147;27307;-78
2023/12/11 12:12:00;;;;;;;3.08;1.57;;;16.00;85.90;;;;;;966638;146;27337;-78
2023/12/11 12:14:25;;;;;;;5.30;1.70;;;16.00;85.40;;;;;;965704;147;27352;-80
2023/12/11 12:16:50;;;;;;;4.90;1.77;;;16.00;84.90;;;;;;966208;146;27417;-78
2023/12/11 12:19:19;;;;;;;4.67;2.00;;;16.10;84.60;;;;;;966932;148;27306;-79
2023/12/11 12:21:54;;;;;;;4.92;1.70;;;16.10;84.40;;;;;;965628;146;27264;-79
2023/12/11 12:24:16;;;;;;;3.77;1.72;;;16.00;84.30;;;;;;964040;148;27451;-79
2023/12/11 12:26:43;;;;;;;3.10;1.67;;;16.10;83.20;;;;;;966226;147;27408;-78
2023/12/11 12:29:10;;;;;;;5.60;1.57;;;16.10;83.20;;;;;;965897;145;27288;-79
2023/12/11 12:31:39;;;;;;;3.75;1.95;;;16.10;82.60;;;;;;968269;147;27433;-79
2023/12/11 12:34:05;;;;;;;4.05;1.70;;;16.10;82.80;;;;;;972272;146;27379;-79
2023/12/11 12:36:32;;;;;;;5.45;2.02;;;16.10;82.30;;;;;;972148;145;27323;-79
2023/12/11 12:38:59;;;;;;;3.90;1.77;;;16.20;82.30;;;;;;969992;147;27299;-78
2023/12/11 12:41:25;;;;;;;2.90;1.60;;;16.20;82.10;;;;;;969187;146;27344;-78
2023/12/11 12:43:52;;;;;;;3.55;1.82;;;16.20;81.70;;;;;;969719;146;27297;-78
2023/12/11 12:46:18;;;;;;;7.08;2.30;;;16.20;81.20;;;;;;968790;147;27283;-79